sensor_id;sensor_type;location;lat;lon;timestamp;P1;durP1;ratioP1;P2;durP2;ratioP2
9270;SDS011;4673;53.458;9.940;2023-06-05T00:01:48;3.23;;;3.23;;
9270;SDS011;4673;53.458;9.940;2023-06-05T00:04:14;2.90;;;2.90;;
9270;SDS011;4673;53.458;9.940;2023-06-05T00:06:40;2.63;;;2.63;;
9270;SDS011;4673;53.458;9.940;2023-06-05T00:09:06;2.93;;;2.93;;
9270;SDS011;4673;53.458;9.940;2023-06-05T00:11:32;2.97;;;2.97;;
9270;SDS011;4673;53.458;9.940;2023-06-05T00:13:58;2.80;;;2.80;;
9270;SDS011;4673;53.458;9.940;2023-06-05T00:16:23;2.90;;;2.90;;
9270;SDS011;4673;53.458;9.940;2023-06-05T00:18:49;2.67;;;2.67;;
9270;SDS011;4673;53.458;9.940;2023-06-05T00:21:15;3.40;;;3.40;;
9270;SDS011;4673;53.458;9.940;2023-06-05T00:23:41;2.67;;;2.67;;
9270;SDS011;4673;53.458;9.940;2023-06-05T00:26:07;2.57;;;2.57;;
9270;SDS011;4673;53.458;9.940;2023-06-05T00:28:32;3.20;;;3.20;;
9270;SDS011;4673;53.458;9.940;2023-06-05T00:30:58;3.30;;;3.30;;
9270;SDS011;4673;53.458;9.940;2023-06-05T00:33:25;2.90;;;2.90;;
9270;SDS011;4673;53.458;9.940;2023-06-05T00:35:50;2.90;;;2.90;;
9270;SDS011;4673;53.458;9.940;2023-06-05T00:38:16;3.37;;;3.37;;
9270;SDS011;4673;53.458;9.940;2023-06-05T00:40:42;3.30;;;3.30;;
9270;SDS011;4673;53.458;9.940;2023-06-05T00:43:07;3.10;;;3.10;;
9270;SDS011;4673;53.458;9.940;2023-06-05T00:45:33;3.37;;;3.37;;
9270;SDS011;4673;53.458;9.940;2023-06-05T00:47:59;3.87;;;3.87;;
9270;SDS011;4673;53.458;9.940;2023-06-05T00:50:25;3.57;;;3.57;;
9270;SDS011;4673;53.458;9.940;2023-06-05T00:52:51;3.97;;;3.97;;
9270;SDS011;4673;53.458;9.940;2023-06-05T00:55:18;3.50;;;3.50;;
9270;SDS011;4673;53.458;9.940;2023-06-05T00:57:44;3.50;;;3.50;;
9270;SDS011;4673;53.458;9.940;2023-06-05T01:00:10;3.27;;;3.27;;
9270;SDS011;4673;53.458;9.940;2023-06-05T01:02:39;3.40;;;3.40;;
9270;SDS011;4673;53.458;9.940;2023-06-05T01:05:05;3.67;;;3.67;;
9270;SDS011;4673;53.458;9.940;2023-06-05T01:07:32;3.37;;;3.37;;
9270;SDS011;4673;53.458;9.940;2023-06-05T01:10:02;4.00;;;4.00;;
9270;SDS011;4673;53.458;9.940;2023-06-05T01:12:32;4.53;;;4.53;;
9270;SDS011;4673;53.458;9.940;2023-06-05T01:15:15;3.87;;;3.87;;
9270;SDS011;4673;53.458;9.940;2023-06-05T01:17:43;4.23;;;4.23;;
9270;SDS011;4673;53.458;9.940;2023-06-05T01:20:12;3.97;;;3.97;;
9270;SDS011;4673;53.458;9.940;2023-06-05T01:22:38;4.07;;;4.07;;
9270;SDS011;4673;53.458;9.940;2023-06-05T01:25:05;3.53;;;3.53;;
9270;SDS011;4673;53.458;9.940;2023-06-05T01:27:43;4.63;;;4.63;;
9270;SDS011;4673;53.458;9.940;2023-06-05T01:32:59;3.93;;;3.93;;
9270;SDS011;4673;53.458;9.940;2023-06-05T01:35:31;4.20;;;4.20;;
9270;SDS011;4673;53.458;9.940;2023-06-05T01:37:58;3.83;;;3.83;;
9270;SDS011;4673;53.458;9.940;2023-06-05T01:40:27;4.37;;;4.37;;
9270;SDS011;4673;53.458;9.940;2023-06-05T01:42:55;3.87;;;3.87;;
9270;SDS011;4673;53.458;9.940;2023-06-05T01:45:22;4.60;;;4.60;;
9270;SDS011;4673;53.458;9.940;2023-06-05T01:47:48;3.70;;;3.70;;
9270;SDS011;4673;53.458;9.940;2023-06-05T01:50:15;4.70;;;4.70;;
9270;SDS011;4673;53.458;9.940;2023-06-05T01:52:42;3.80;;;3.80;;
9270;SDS011;4673;53.458;9.940;2023-06-05T01:55:13;3.70;;;3.70;;
9270;SDS011;4673;53.458;9.940;2023-06-05T01:57:48;4.47;;;4.47;;
9270;SDS011;4673;53.458;9.940;2023-06-05T02:00:15;4.63;;;4.63;;
9270;SDS011;4673;53.458;9.940;2023-06-05T02:02:42;3.63;;;3.63;;
9270;SDS011;4673;53.458;9.940;2023-06-05T02:05:10;4.07;;;4.07;;
9270;SDS011;4673;53.458;9.940;2023-06-05T02:07:39;4.13;;;4.13;;
9270;SDS011;4673;53.458;9.940;2023-06-05T02:10:06;4.33;;;4.33;;
9270;SDS011;4673;53.458;9.940;2023-06-05T02:12:32;4.10;;;4.10;;
9270;SDS011;4673;53.458;9.940;2023-06-05T02:15:01;4.73;;;4.73;;
9270;SDS011;4673;53.458;9.940;2023-06-05T02:17:27;4.47;;;4.47;;
9270;SDS011;4673;53.458;9.940;2023-06-05T02:19:54;4.57;;;4.57;;
9270;SDS011;4673;53.458;9.940;2023-06-05T02:22:19;3.97;;;3.97;;
9270;SDS011;4673;53.458;9.940;2023-06-05T02:24:45;4.20;;;4.20;;
9270;SDS011;4673;53.458;9.940;2023-06-05T02:27:11;4.63;;;4.63;;
9270;SDS011;4673;53.458;9.940;2023-06-05T02:29:37;4.30;;;4.30;;
9270;SDS011;4673;53.458;9.940;2023-06-05T02:32:04;4.50;;;4.50;;
9270;SDS011;4673;53.458;9.940;2023-06-05T02:34:31;4.80;;;4.80;;
9270;SDS011;4673;53.458;9.940;2023-06-05T02:36:57;4.03;;;4.03;;
9270;SDS011;4673;53.458;9.940;2023-06-05T02:39:23;4.30;;;4.30;;
9270;SDS011;4673;53.458;9.940;2023-06-05T02:41:51;4.00;;;4.00;;
9270;SDS011;4673;53.458;9.940;2023-06-05T02:44:18;4.43;;;4.43;;
9270;SDS011;4673;53.458;9.940;2023-06-05T02:46:43;4.50;;;4.50;;
9270;SDS011;4673;53.458;9.940;2023-06-05T02:49:09;5.00;;;5.00;;
9270;SDS011;4673;53.458;9.940;2023-06-05T02:51:35;4.57;;;4.57;;
9270;SDS011;4673;53.458;9.940;2023-06-05T02:54:01;4.80;;;4.80;;
9270;SDS011;4673;53.458;9.940;2023-06-05T02:56:26;4.90;;;4.90;;
9270;SDS011;4673;53.458;9.940;2023-06-05T02:58:52;4.57;;;4.57;;
9270;SDS011;4673;53.458;9.940;2023-06-05T03:01:18;4.57;;;4.57;;
9270;SDS011;4673;53.458;9.940;2023-06-05T03:03:46;4.57;;;4.57;;
9270;SDS011;4673;53.458;9.940;2023-06-05T03:06:13;5.30;;;5.30;;
9270;SDS011;4673;53.458;9.940;2023-06-05T03:08:42;4.47;;;4.47;;
9270;SDS011;4673;53.458;9.940;2023-06-05T03:11:09;5.00;;;5.00;;
9270;SDS011;4673;53.458;9.940;2023-06-05T03:13:35;4.60;;;4.60;;
9270;SDS011;4673;53.458;9.940;2023-06-05T03:16:00;4.70;;;4.70;;
9270;SDS011;4673;53.458;9.940;2023-06-05T03:18:27;4.93;;;4.93;;
9270;SDS011;4673;53.458;9.940;2023-06-05T03:20:53;5.60;;;5.60;;
9270;SDS011;4673;53.458;9.940;2023-06-05T03:23:22;4.87;;;4.87;;
9270;SDS011;4673;53.458;9.940;2023-06-05T03:25:52;5.03;;;5.03;;
9270;SDS011;4673;53.458;9.940;2023-06-05T03:28:19;5.03;;;5.03;;
9270;SDS011;4673;53.458;9.940;2023-06-05T03:30:46;5.70;;;5.70;;
9270;SDS011;4673;53.458;9.940;2023-06-05T03:33:12;5.10;;;5.10;;
9270;SDS011;4673;53.458;9.940;2023-06-05T03:35:39;5.37;;;5.37;;
9270;SDS011;4673;53.458;9.940;2023-06-05T03:38:08;4.87;;;4.87;;
9270;SDS011;4673;53.458;9.940;2023-06-05T03:40:34;5.47;;;5.47;;
9270;SDS011;4673;53.458;9.940;2023-06-05T03:43:00;6.17;;;6.17;;
9270;SDS011;4673;53.458;9.940;2023-06-05T03:45:25;5.30;;;5.30;;
9270;SDS011;4673;53.458;9.940;2023-06-05T03:47:52;4.93;;;4.93;;
9270;SDS011;4673;53.458;9.940;2023-06-05T03:50:19;6.13;;;6.13;;
9270;SDS011;4673;53.458;9.940;2023-06-05T03:52:46;5.47;;;5.47;;
9270;SDS011;4673;53.458;9.940;2023-06-05T03:55:21;5.83;;;5.83;;
9270;SDS011;4673;53.458;9.940;2023-06-05T03:57:47;5.20;;;5.20;;
9270;SDS011;4673;53.458;9.940;2023-06-05T04:00:13;5.97;;;5.97;;
9270;SDS011;4673;53.458;9.940;2023-06-05T04:02:42;6.07;;;6.07;;
9270;SDS011;4673;53.458;9.940;2023-06-05T04:05:08;5.23;;;5.23;;
9270;SDS011;4673;53.458;9.940;2023-06-05T04:07:37;5.43;;;5.43;;
9270;SDS011;4673;53.458;9.940;2023-06-05T04:10:04;5.10;;;5.10;;
9270;SDS011;4673;53.458;9.940;2023-06-05T04:12:29;5.83;;;5.83;;
9270;SDS011;4673;53.458;9.940;2023-06-05T04:14:55;6.23;;;6.23;;
9270;SDS011;4673;53.458;9.940;2023-06-05T04:17:21;5.90;;;5.90;;
9270;SDS011;4673;53.458;9.940;2023-06-05T04:19:46;6.77;;;6.77;;
9270;SDS011;4673;53.458;9.940;2023-06-05T04:22:12;7.83;;;7.83;;
9270;SDS011;4673;53.458;9.940;2023-06-05T04:24:38;6.57;;;6.57;;
9270;SDS011;4673;53.458;9.940;2023-06-05T04:27:04;6.87;;;6.87;;
9270;SDS011;4673;53.458;9.940;2023-06-05T04:29:30;6.53;;;6.53;;
9270;SDS011;4673;53.458;9.940;2023-06-05T04:31:57;7.43;;;7.43;;
9270;SDS011;4673;53.458;9.940;2023-06-05T04:34:23;7.03;;;7.03;;
9270;SDS011;4673;53.458;9.940;2023-06-05T04:36:49;6.33;;;6.33;;
9270;SDS011;4673;53.458;9.940;2023-06-05T04:39:16;6.63;;;6.63;;
9270;SDS011;4673;53.458;9.940;2023-06-05T04:41:43;5.77;;;5.77;;
9270;SDS011;4673;53.458;9.940;2023-06-05T04:44:14;6.43;;;6.43;;
9270;SDS011;4673;53.458;9.940;2023-06-05T04:46:44;6.00;;;6.00;;
9270;SDS011;4673;53.458;9.940;2023-06-05T04:49:14;6.30;;;6.30;;
9270;SDS011;4673;53.458;9.940;2023-06-05T04:51:40;6.23;;;6.23;;
9270;SDS011;4673;53.458;9.940;2023-06-05T04:54:07;6.93;;;6.93;;
9270;SDS011;4673;53.458;9.940;2023-06-05T04:56:33;7.80;;;7.77;;
9270;SDS011;4673;53.458;9.940;2023-06-05T04:58:59;6.30;;;6.30;;
9270;SDS011;4673;53.458;9.940;2023-06-05T05:01:28;6.40;;;6.40;;
9270;SDS011;4673;53.458;9.940;2023-06-05T05:03:54;6.93;;;6.93;;
9270;SDS011;4673;53.458;9.940;2023-06-05T05:06:20;6.50;;;6.50;;
9270;SDS011;4673;53.458;9.940;2023-06-05T05:08:46;6.93;;;6.93;;
9270;SDS011;4673;53.458;9.940;2023-06-05T05:11:16;7.33;;;7.33;;
9270;SDS011;4673;53.458;9.940;2023-06-05T05:13:42;6.77;;;6.77;;
9270;SDS011;4673;53.458;9.940;2023-06-05T05:16:08;6.80;;;6.80;;
9270;SDS011;4673;53.458;9.940;2023-06-05T05:18:35;6.33;;;6.33;;
9270;SDS011;4673;53.458;9.940;2023-06-05T05:21:05;7.80;;;7.80;;
9270;SDS011;4673;53.458;9.940;2023-06-05T05:23:34;8.13;;;8.13;;
9270;SDS011;4673;53.458;9.940;2023-06-05T05:26:00;6.93;;;6.93;;
9270;SDS011;4673;53.458;9.940;2023-06-05T05:28:27;7.07;;;7.07;;
9270;SDS011;4673;53.458;9.940;2023-06-05T05:30:53;7.37;;;7.37;;
9270;SDS011;4673;53.458;9.940;2023-06-05T05:33:21;7.33;;;7.33;;
9270;SDS011;4673;53.458;9.940;2023-06-05T05:35:47;6.83;;;6.83;;
9270;SDS011;4673;53.458;9.940;2023-06-05T05:38:13;7.00;;;7.00;;
9270;SDS011;4673;53.458;9.940;2023-06-05T05:40:39;7.50;;;7.50;;
9270;SDS011;4673;53.458;9.940;2023-06-05T05:43:05;7.20;;;7.20;;
9270;SDS011;4673;53.458;9.940;2023-06-05T05:45:30;7.07;;;7.07;;
9270;SDS011;4673;53.458;9.940;2023-06-05T05:47:56;6.50;;;6.50;;
9270;SDS011;4673;53.458;9.940;2023-06-05T05:50:22;6.93;;;6.93;;
9270;SDS011;4673;53.458;9.940;2023-06-05T05:52:48;5.83;;;5.83;;
9270;SDS011;4673;53.458;9.940;2023-06-05T05:55:17;7.00;;;7.00;;
9270;SDS011;4673;53.458;9.940;2023-06-05T05:57:42;6.40;;;6.40;;
9270;SDS011;4673;53.458;9.940;2023-06-05T06:00:08;6.37;;;6.37;;
9270;SDS011;4673;53.458;9.940;2023-06-05T06:02:38;6.50;;;6.50;;
9270;SDS011;4673;53.458;9.940;2023-06-05T06:05:04;7.17;;;7.17;;
9270;SDS011;4673;53.458;9.940;2023-06-05T06:07:31;7.10;;;7.10;;
9270;SDS011;4673;53.458;9.940;2023-06-05T06:09:57;6.83;;;6.83;;
9270;SDS011;4673;53.458;9.940;2023-06-05T06:12:23;6.70;;;6.70;;
9270;SDS011;4673;53.458;9.940;2023-06-05T06:14:49;7.23;;;7.23;;
9270;SDS011;4673;53.458;9.940;2023-06-05T06:17:15;6.80;;;6.80;;
9270;SDS011;4673;53.458;9.940;2023-06-05T06:19:40;7.30;;;7.30;;
9270;SDS011;4673;53.458;9.940;2023-06-05T06:22:07;8.07;;;8.07;;
9270;SDS011;4673;53.458;9.940;2023-06-05T06:24:37;7.10;;;7.10;;
9270;SDS011;4673;53.458;9.940;2023-06-05T06:27:04;7.03;;;7.03;;
9270;SDS011;4673;53.458;9.940;2023-06-05T06:29:29;7.30;;;7.30;;
9270;SDS011;4673;53.458;9.940;2023-06-05T06:31:56;7.37;;;7.37;;
9270;SDS011;4673;53.458;9.940;2023-06-05T06:34:22;7.50;;;7.50;;
9270;SDS011;4673;53.458;9.940;2023-06-05T06:36:49;6.83;;;6.83;;
9270;SDS011;4673;53.458;9.940;2023-06-05T06:39:15;6.97;;;6.97;;
9270;SDS011;4673;53.458;9.940;2023-06-05T06:41:41;6.23;;;6.23;;
9270;SDS011;4673;53.458;9.940;2023-06-05T06:44:07;6.80;;;6.80;;
9270;SDS011;4673;53.458;9.940;2023-06-05T06:46:33;5.85;;;5.85;;
9270;SDS011;4673;53.458;9.940;2023-06-05T06:48:58;6.28;;;6.28;;
9270;SDS011;4673;53.458;9.940;2023-06-05T06:51:24;7.22;;;7.13;;
9270;SDS011;4673;53.458;9.940;2023-06-05T06:53:50;6.57;;;6.57;;
9270;SDS011;4673;53.458;9.940;2023-06-05T06:56:16;6.50;;;6.50;;
9270;SDS011;4673;53.458;9.940;2023-06-05T06:58:43;6.57;;;6.57;;
9270;SDS011;4673;53.458;9.940;2023-06-05T07:01:10;6.40;;;6.40;;
9270;SDS011;4673;53.458;9.940;2023-06-05T07:03:37;6.25;;;6.25;;
9270;SDS011;4673;53.458;9.940;2023-06-05T07:06:03;5.30;;;5.30;;
9270;SDS011;4673;53.458;9.940;2023-06-05T07:08:29;5.97;;;5.97;;
9270;SDS011;4673;53.458;9.940;2023-06-05T07:10:54;5.85;;;5.85;;
9270;SDS011;4673;53.458;9.940;2023-06-05T07:13:20;6.18;;;6.18;;
9270;SDS011;4673;53.458;9.940;2023-06-05T07:15:47;5.90;;;5.90;;
9270;SDS011;4673;53.458;9.940;2023-06-05T07:18:12;5.40;;;5.40;;
9270;SDS011;4673;53.458;9.940;2023-06-05T07:20:38;4.68;;;4.68;;
9270;SDS011;4673;53.458;9.940;2023-06-05T07:23:04;5.32;;;5.32;;
9270;SDS011;4673;53.458;9.940;2023-06-05T07:25:29;4.85;;;4.85;;
9270;SDS011;4673;53.458;9.940;2023-06-05T07:27:55;5.15;;;5.15;;
9270;SDS011;4673;53.458;9.940;2023-06-05T07:30:21;5.70;;;5.70;;
9270;SDS011;4673;53.458;9.940;2023-06-05T07:32:46;4.10;;;4.10;;
9270;SDS011;4673;53.458;9.940;2023-06-05T07:35:12;4.38;;;4.38;;
9270;SDS011;4673;53.458;9.940;2023-06-05T07:37:39;3.53;;;3.53;;
9270;SDS011;4673;53.458;9.940;2023-06-05T07:40:05;4.30;;;4.30;;
9270;SDS011;4673;53.458;9.940;2023-06-05T07:42:31;4.45;;;4.45;;
9270;SDS011;4673;53.458;9.940;2023-06-05T07:44:57;4.80;;;4.80;;
9270;SDS011;4673;53.458;9.940;2023-06-05T07:47:22;4.63;;;4.63;;
9270;SDS011;4673;53.458;9.940;2023-06-05T07:50:01;4.07;;;4.07;;
9270;SDS011;4673;53.458;9.940;2023-06-05T07:52:30;4.20;;;4.20;;
9270;SDS011;4673;53.458;9.940;2023-06-05T07:54:56;4.63;;;4.63;;
9270;SDS011;4673;53.458;9.940;2023-06-05T07:57:23;4.72;;;4.72;;
9270;SDS011;4673;53.458;9.940;2023-06-05T07:59:55;4.25;;;4.25;;
9270;SDS011;4673;53.458;9.940;2023-06-05T08:02:21;4.30;;;4.30;;
9270;SDS011;4673;53.458;9.940;2023-06-05T08:04:48;4.03;;;4.03;;
9270;SDS011;4673;53.458;9.940;2023-06-05T08:07:13;4.28;;;4.28;;
9270;SDS011;4673;53.458;9.940;2023-06-05T08:09:39;4.15;;;4.15;;
9270;SDS011;4673;53.458;9.940;2023-06-05T08:12:05;4.22;;;4.22;;
9270;SDS011;4673;53.458;9.940;2023-06-05T08:14:32;3.42;;;3.42;;
9270;SDS011;4673;53.458;9.940;2023-06-05T08:16:59;4.07;;;4.07;;
9270;SDS011;4673;53.458;9.940;2023-06-05T08:19:25;3.70;;;3.70;;
9270;SDS011;4673;53.458;9.940;2023-06-05T08:21:51;3.78;;;3.78;;
9270;SDS011;4673;53.458;9.940;2023-06-05T08:24:19;4.15;;;4.15;;
9270;SDS011;4673;53.458;9.940;2023-06-05T08:26:45;4.15;;;4.15;;
9270;SDS011;4673;53.458;9.940;2023-06-05T08:29:11;3.38;;;3.38;;
9270;SDS011;4673;53.458;9.940;2023-06-05T08:31:39;3.20;;;3.20;;
9270;SDS011;4673;53.458;9.940;2023-06-05T08:34:05;3.22;;;3.22;;
9270;SDS011;4673;53.458;9.940;2023-06-05T08:36:31;3.65;;;3.65;;
9270;SDS011;4673;53.458;9.940;2023-06-05T08:38:58;3.50;;;3.50;;
9270;SDS011;4673;53.458;9.940;2023-06-05T08:41:24;3.30;;;3.30;;
9270;SDS011;4673;53.458;9.940;2023-06-05T08:43:50;3.25;;;3.25;;
9270;SDS011;4673;53.458;9.940;2023-06-05T08:46:17;3.38;;;3.38;;
9270;SDS011;4673;53.458;9.940;2023-06-05T08:48:43;3.00;;;3.00;;
9270;SDS011;4673;53.458;9.940;2023-06-05T08:51:11;3.67;;;3.67;;
9270;SDS011;4673;53.458;9.940;2023-06-05T08:53:38;3.20;;;3.20;;
9270;SDS011;4673;53.458;9.940;2023-06-05T08:56:06;3.60;;;3.60;;
9270;SDS011;4673;53.458;9.940;2023-06-05T08:58:36;3.55;;;3.55;;
9270;SDS011;4673;53.458;9.940;2023-06-05T09:01:02;3.20;;;3.20;;
9270;SDS011;4673;53.458;9.940;2023-06-05T09:03:28;2.80;;;2.80;;
9270;SDS011;4673;53.458;9.940;2023-06-05T09:05:54;3.13;;;3.13;;
9270;SDS011;4673;53.458;9.940;2023-06-05T09:08:27;3.17;;;3.17;;
9270;SDS011;4673;53.458;9.940;2023-06-05T09:13:50;3.63;;;3.63;;
9270;SDS011;4673;53.458;9.940;2023-06-05T09:16:19;3.72;;;3.72;;
9270;SDS011;4673;53.458;9.940;2023-06-05T09:18:55;2.50;;;2.50;;
9270;SDS011;4673;53.458;9.940;2023-06-05T09:21:22;3.50;;;3.50;;
9270;SDS011;4673;53.458;9.940;2023-06-05T09:23:59;3.47;;;3.47;;
9270;SDS011;4673;53.458;9.940;2023-06-05T09:32:17;3.00;;;3.00;;
9270;SDS011;4673;53.458;9.940;2023-06-05T09:34:44;3.33;;;3.33;;
9270;SDS011;4673;53.458;9.940;2023-06-05T09:37:11;2.60;;;2.60;;
9270;SDS011;4673;53.458;9.940;2023-06-05T09:39:41;3.20;;;3.20;;
9270;SDS011;4673;53.458;9.940;2023-06-05T09:42:11;2.65;;;2.65;;
9270;SDS011;4673;53.458;9.940;2023-06-05T09:44:36;2.38;;;2.38;;
9270;SDS011;4673;53.458;9.940;2023-06-05T09:47:03;3.30;;;3.30;;
9270;SDS011;4673;53.458;9.940;2023-06-05T09:52:08;3.15;;;3.15;;
9270;SDS011;4673;53.458;9.940;2023-06-05T09:54:42;1.88;;;1.88;;
9270;SDS011;4673;53.458;9.940;2023-06-05T09:57:12;2.40;;;2.40;;
9270;SDS011;4673;53.458;9.940;2023-06-05T09:59:52;2.47;;;2.47;;
9270;SDS011;4673;53.458;9.940;2023-06-05T10:02:25;2.45;;;2.45;;
9270;SDS011;4673;53.458;9.940;2023-06-05T10:05:02;2.35;;;2.35;;
9270;SDS011;4673;53.458;9.940;2023-06-05T10:07:32;2.20;;;2.20;;
9270;SDS011;4673;53.458;9.940;2023-06-05T10:10:00;2.08;;;2.08;;
9270;SDS011;4673;53.458;9.940;2023-06-05T10:12:27;2.03;;;2.03;;
9270;SDS011;4673;53.458;9.940;2023-06-05T10:14:53;2.00;;;2.00;;
9270;SDS011;4673;53.458;9.940;2023-06-05T10:17:22;2.22;;;2.22;;
9270;SDS011;4673;53.458;9.940;2023-06-05T10:19:49;2.40;;;2.40;;
9270;SDS011;4673;53.458;9.940;2023-06-05T10:22:16;2.88;;;2.88;;
9270;SDS011;4673;53.458;9.940;2023-06-05T10:24:50;2.55;;;2.55;;
9270;SDS011;4673;53.458;9.940;2023-06-05T10:27:42;2.63;;;2.63;;
9270;SDS011;4673;53.458;9.940;2023-06-05T10:36:57;2.40;;;2.40;;
9270;SDS011;4673;53.458;9.940;2023-06-05T10:39:08;2.15;;;2.15;;
9270;SDS011;4673;53.458;9.940;2023-06-05T10:41:35;2.33;;;2.33;;
9270;SDS011;4673;53.458;9.940;2023-06-05T10:44:01;2.30;;;2.30;;
9270;SDS011;4673;53.458;9.940;2023-06-05T10:51:34;2.30;;;2.30;;
9270;SDS011;4673;53.458;9.940;2023-06-05T10:54:11;2.00;;;2.00;;
9270;SDS011;4673;53.458;9.940;2023-06-05T10:57:01;1.60;;;1.60;;
9270;SDS011;4673;53.458;9.940;2023-06-05T10:59:38;2.50;;;2.50;;
9270;SDS011;4673;53.458;9.940;2023-06-05T11:07:14;1.73;;;1.73;;
9270;SDS011;4673;53.458;9.940;2023-06-05T11:10:03;2.00;;;2.00;;
9270;SDS011;4673;53.458;9.940;2023-06-05T11:12:27;2.08;;;2.08;;
9270;SDS011;4673;53.458;9.940;2023-06-05T11:15:06;2.60;;;2.60;;
9270;SDS011;4673;53.458;9.940;2023-06-05T11:17:37;2.05;;;2.05;;
9270;SDS011;4673;53.458;9.940;2023-06-05T11:20:05;1.90;;;1.90;;
9270;SDS011;4673;53.458;9.940;2023-06-05T11:23:20;1.67;;;1.67;;
9270;SDS011;4673;53.458;9.940;2023-06-05T11:25:24;1.55;;;1.55;;
9270;SDS011;4673;53.458;9.940;2023-06-05T11:27:59;2.30;;;2.30;;
9270;SDS011;4673;53.458;9.940;2023-06-05T11:30:30;1.63;;;1.63;;
9270;SDS011;4673;53.458;9.940;2023-06-05T11:33:14;1.80;;;1.80;;
9270;SDS011;4673;53.458;9.940;2023-06-05T11:35:41;1.55;;;1.55;;
9270;SDS011;4673;53.458;9.940;2023-06-05T11:40:41;1.60;;;1.60;;
9270;SDS011;4673;53.458;9.940;2023-06-05T11:43:08;1.58;;;1.58;;
9270;SDS011;4673;53.458;9.940;2023-06-05T11:45:36;1.65;;;1.65;;
9270;SDS011;4673;53.458;9.940;2023-06-05T11:48:03;1.73;;;1.73;;
9270;SDS011;4673;53.458;9.940;2023-06-05T11:50:40;1.30;;;1.30;;
9270;SDS011;4673;53.458;9.940;2023-06-05T11:53:17;1.80;;;1.80;;
9270;SDS011;4673;53.458;9.940;2023-06-05T11:55:43;1.20;;;1.20;;
9270;SDS011;4673;53.458;9.940;2023-06-05T12:00:48;1.55;;;1.55;;
9270;SDS011;4673;53.458;9.940;2023-06-05T12:03:17;1.70;;;1.70;;
9270;SDS011;4673;53.458;9.940;2023-06-05T12:05:44;1.55;;;1.55;;
9270;SDS011;4673;53.458;9.940;2023-06-05T12:10:52;1.90;;;1.90;;
9270;SDS011;4673;53.458;9.940;2023-06-05T12:13:19;1.73;;;1.73;;
9270;SDS011;4673;53.458;9.940;2023-06-05T12:16:00;1.90;;;1.90;;
9270;SDS011;4673;53.458;9.940;2023-06-05T12:18:32;1.33;;;1.33;;
9270;SDS011;4673;53.458;9.940;2023-06-05T12:20:59;1.48;;;1.48;;
9270;SDS011;4673;53.458;9.940;2023-06-05T12:23:25;1.30;;;1.30;;
9270;SDS011;4673;53.458;9.940;2023-06-05T12:25:59;1.88;;;1.88;;
9270;SDS011;4673;53.458;9.940;2023-06-05T12:28:27;2.13;;;2.13;;
9270;SDS011;4673;53.458;9.940;2023-06-05T12:30:53;1.70;;;1.70;;
9270;SDS011;4673;53.458;9.940;2023-06-05T12:33:19;1.90;;;1.90;;
9270;SDS011;4673;53.458;9.940;2023-06-05T12:35:47;1.80;;;1.80;;
9270;SDS011;4673;53.458;9.940;2023-06-05T12:38:13;1.40;;;1.40;;
9270;SDS011;4673;53.458;9.940;2023-06-05T12:40:39;1.55;;;1.55;;
9270;SDS011;4673;53.458;9.940;2023-06-05T12:43:15;1.58;;;1.58;;
9270;SDS011;4673;53.458;9.940;2023-06-05T12:45:44;1.10;;;1.10;;
9270;SDS011;4673;53.458;9.940;2023-06-05T12:48:10;1.80;;;1.80;;
9270;SDS011;4673;53.458;9.940;2023-06-05T12:50:37;1.65;;;1.65;;
9270;SDS011;4673;53.458;9.940;2023-06-05T12:53:06;1.58;;;1.58;;
9270;SDS011;4673;53.458;9.940;2023-06-05T12:55:32;1.50;;;1.50;;
9270;SDS011;4673;53.458;9.940;2023-06-05T12:57:58;1.33;;;1.33;;
9270;SDS011;4673;53.458;9.940;2023-06-05T13:00:23;1.65;;;1.65;;
9270;SDS011;4673;53.458;9.940;2023-06-05T13:02:49;1.67;;;1.67;;
9270;SDS011;4673;53.458;9.940;2023-06-05T13:05:15;1.38;;;1.38;;
9270;SDS011;4673;53.458;9.940;2023-06-05T13:07:41;1.75;;;1.75;;
9270;SDS011;4673;53.458;9.940;2023-06-05T13:10:07;1.55;;;1.55;;
9270;SDS011;4673;53.458;9.940;2023-06-05T13:12:33;1.88;;;1.88;;
9270;SDS011;4673;53.458;9.940;2023-06-05T13:14:59;1.60;;;1.60;;
9270;SDS011;4673;53.458;9.940;2023-06-05T13:17:28;1.80;;;1.80;;
9270;SDS011;4673;53.458;9.940;2023-06-05T13:19:58;1.77;;;1.77;;
9270;SDS011;4673;53.458;9.940;2023-06-05T13:22:24;1.63;;;1.63;;
9270;SDS011;4673;53.458;9.940;2023-06-05T13:24:50;1.77;;;1.77;;
9270;SDS011;4673;53.458;9.940;2023-06-05T13:27:16;1.98;;;1.98;;
9270;SDS011;4673;53.458;9.940;2023-06-05T13:29:43;1.38;;;1.38;;
9270;SDS011;4673;53.458;9.940;2023-06-05T13:32:09;1.80;;;1.80;;
9270;SDS011;4673;53.458;9.940;2023-06-05T13:34:35;1.65;;;1.65;;
9270;SDS011;4673;53.458;9.940;2023-06-05T13:37:01;1.70;;;1.70;;
9270;SDS011;4673;53.458;9.940;2023-06-05T13:39:28;1.80;;;1.80;;
9270;SDS011;4673;53.458;9.940;2023-06-05T13:41:53;1.80;;;1.80;;
9270;SDS011;4673;53.458;9.940;2023-06-05T13:44:19;1.58;;;1.58;;
9270;SDS011;4673;53.458;9.940;2023-06-05T13:46:45;1.80;;;1.80;;
9270;SDS011;4673;53.458;9.940;2023-06-05T13:49:11;1.83;;;1.83;;
9270;SDS011;4673;53.458;9.940;2023-06-05T13:51:36;1.75;;;1.75;;
9270;SDS011;4673;53.458;9.940;2023-06-05T13:54:03;1.70;;;1.70;;
9270;SDS011;4673;53.458;9.940;2023-06-05T13:56:30;1.58;;;1.58;;
9270;SDS011;4673;53.458;9.940;2023-06-05T13:58:55;1.30;;;1.30;;
9270;SDS011;4673;53.458;9.940;2023-06-05T14:01:22;1.92;;;1.92;;
9270;SDS011;4673;53.458;9.940;2023-06-05T14:03:48;1.83;;;1.83;;
9270;SDS011;4673;53.458;9.940;2023-06-05T14:06:15;1.88;;;1.88;;
9270;SDS011;4673;53.458;9.940;2023-06-05T14:08:42;1.77;;;1.77;;
9270;SDS011;4673;53.458;9.940;2023-06-05T14:11:08;1.80;;;1.80;;
9270;SDS011;4673;53.458;9.940;2023-06-05T14:13:34;1.73;;;1.73;;
9270;SDS011;4673;53.458;9.940;2023-06-05T14:16:01;1.58;;;1.58;;
9270;SDS011;4673;53.458;9.940;2023-06-05T14:18:28;1.90;;;1.90;;
9270;SDS011;4673;53.458;9.940;2023-06-05T14:20:54;1.88;;;1.88;;
9270;SDS011;4673;53.458;9.940;2023-06-05T14:23:20;1.98;;;1.98;;
9270;SDS011;4673;53.458;9.940;2023-06-05T14:25:48;1.92;;;1.92;;
9270;SDS011;4673;53.458;9.940;2023-06-05T14:28:14;2.00;;;2.00;;
9270;SDS011;4673;53.458;9.940;2023-06-05T14:30:40;1.92;;;1.92;;
9270;SDS011;4673;53.458;9.940;2023-06-05T14:33:05;2.30;;;2.30;;
9270;SDS011;4673;53.458;9.940;2023-06-05T14:35:31;1.85;;;1.85;;
9270;SDS011;4673;53.458;9.940;2023-06-05T14:37:57;2.13;;;2.13;;
9270;SDS011;4673;53.458;9.940;2023-06-05T14:40:22;1.55;;;1.55;;
9270;SDS011;4673;53.458;9.940;2023-06-05T14:42:49;2.08;;;2.08;;
9270;SDS011;4673;53.458;9.940;2023-06-05T14:45:14;1.70;;;1.70;;
9270;SDS011;4673;53.458;9.940;2023-06-05T14:47:40;1.75;;;1.75;;
9270;SDS011;4673;53.458;9.940;2023-06-05T14:50:06;1.75;;;1.75;;
9270;SDS011;4673;53.458;9.940;2023-06-05T14:52:32;1.83;;;1.83;;
9270;SDS011;4673;53.458;9.940;2023-06-05T14:54:58;1.60;;;1.60;;
9270;SDS011;4673;53.458;9.940;2023-06-05T14:57:24;2.00;;;2.00;;
9270;SDS011;4673;53.458;9.940;2023-06-05T14:59:50;1.80;;;1.80;;
9270;SDS011;4673;53.458;9.940;2023-06-05T15:02:15;1.73;;;1.73;;
9270;SDS011;4673;53.458;9.940;2023-06-05T15:04:42;2.20;;;2.20;;
9270;SDS011;4673;53.458;9.940;2023-06-05T15:07:07;2.28;;;2.28;;
9270;SDS011;4673;53.458;9.940;2023-06-05T15:09:33;2.20;;;2.20;;
9270;SDS011;4673;53.458;9.940;2023-06-05T15:11:58;2.10;;;2.10;;
9270;SDS011;4673;53.458;9.940;2023-06-05T15:14:25;1.80;;;1.80;;
9270;SDS011;4673;53.458;9.940;2023-06-05T15:16:50;2.15;;;2.15;;
9270;SDS011;4673;53.458;9.940;2023-06-05T15:19:16;2.42;;;2.42;;
9270;SDS011;4673;53.458;9.940;2023-06-05T15:21:42;2.42;;;2.42;;
9270;SDS011;4673;53.458;9.940;2023-06-05T15:24:08;2.30;;;2.30;;
9270;SDS011;4673;53.458;9.940;2023-06-05T15:26:34;1.63;;;1.63;;
9270;SDS011;4673;53.458;9.940;2023-06-05T15:29:00;1.90;;;1.90;;
9270;SDS011;4673;53.458;9.940;2023-06-05T15:31:25;2.13;;;2.13;;
9270;SDS011;4673;53.458;9.940;2023-06-05T15:33:51;2.20;;;2.20;;
9270;SDS011;4673;53.458;9.940;2023-06-05T15:36:17;2.38;;;2.38;;
9270;SDS011;4673;53.458;9.940;2023-06-05T15:38:42;1.77;;;1.77;;
9270;SDS011;4673;53.458;9.940;2023-06-05T15:41:08;2.15;;;2.15;;
9270;SDS011;4673;53.458;9.940;2023-06-05T15:43:34;2.00;;;2.00;;
9270;SDS011;4673;53.458;9.940;2023-06-05T15:46:00;1.75;;;1.75;;
9270;SDS011;4673;53.458;9.940;2023-06-05T15:48:26;2.47;;;2.47;;
9270;SDS011;4673;53.458;9.940;2023-06-05T15:50:51;2.22;;;2.22;;
9270;SDS011;4673;53.458;9.940;2023-06-05T15:53:17;2.28;;;2.28;;
9270;SDS011;4673;53.458;9.940;2023-06-05T15:55:43;2.10;;;2.10;;